Time;durP1;ratioP1;P1;durP2;ratioP2;P2;SDS_P1;SDS_P2;PMS_P1;PMS_P2;Temp;Humidity;BMP_temperature;BMP_pressure;BME280_temperature;BME280_humidity;BME280_pressure;Samples;Min_cycle;Max_cycle;Signal;HPM_P1;HPM_P2
2023/04/27 00:03:57;;;;;;;7.63;4.90;;;;;;;1.26;100.00;102030.56;10367505;28;20069;-73
2023/04/27 00:08:58;;;;;;;10.10;5.90;;;;;;;-0.08;100.00;101829.78;10417500;28;20041;-73
2023/04/27 00:13:58;;;;;;;11.15;4.50;;;;;;;1.18;100.00;102019.69;10417059;28;20115;-72
2023/04/27 00:18:59;;;;;;;10.00;5.32;;;;;;;1.24;100.00;102038.03;10383572;28;20032;-72
2023/04/27 00:24:00;;;;;;;10.27;5.35;;;;;;;1.31;100.00;102054.50;10383517;28;20045;-74
2023/04/27 00:29:00;;;;;;;7.95;4.57;;;;;;;1.23;100.00;102025.47;10399487;28;20068;-73
2023/04/27 00:34:01;;;;;;;7.90;4.93;;;;;;;1.31;100.00;102038.22;10399104;28;20035;-73
2023/04/27 00:39:02;;;;;;;9.18;4.85;;;;;;;1.33;100.00;102041.63;10380763;28;20056;-70
2023/04/27 00:44:02;;;;;;;10.63;5.20;;;;;;;1.41;100.00;102050.63;10399139;28;20040;-73
2023/04/27 00:49:03;;;;;;;8.82;4.80;;;;;;;1.37;100.00;102040.28;10416187;28;20041;-73
2023/04/27 00:54:04;;;;;;;9.00;5.40;;;;;;;1.42;100.00;102052.31;10382688;28;20034;-76
2023/04/27 00:59:05;;;;;;;9.15;4.60;;;;;;;1.24;100.00;102035.31;10415823;28;20088;-73
2023/04/27 01:04:05;;;;;;;12.68;5.40;;;;;;;1.34;100.00;102060.41;10415971;28;20534;-74
2023/04/27 01:09:06;;;;;;;11.15;5.75;;;;;;;0.89;100.00;101985.69;10415261;28;20049;-73
2023/04/27 01:14:07;;;;;;;10.40;6.05;;;;;;;1.46;100.00;102057.41;10413612;28;20042;-73
2023/04/27 01:19:08;;;;;;;9.63;5.53;;;;;;;1.48;100.00;102058.09;10365203;28;20029;-73
2023/04/27 01:24:08;;;;;;;10.55;5.20;;;;;;;1.45;100.00;102061.13;10415323;28;20069;-73
2023/04/27 01:29:09;;;;;;;12.80;5.93;;;;;;;1.35;100.00;102054.00;10380732;28;20056;-73
2023/04/27 01:34:10;;;;;;;13.55;5.82;;;;;;;1.31;100.00;102051.78;10379926;28;20133;-73
2023/04/27 01:39:11;;;;;;;9.57;5.68;;;;;;;1.17;100.00;102042.41;10395754;28;20107;-74
2023/04/27 01:44:11;;;;;;;12.05;5.45;;;;;;;1.15;100.00;102039.84;10395714;28;20077;-73
2023/04/27 01:49:12;;;;;;;10.45;6.35;;;;;;;1.12;100.00;102050.19;10413765;28;20038;-73
2023/04/27 01:54:12;;;;;;;11.73;5.75;;;;;;;1.03;100.00;102051.16;10396328;28;20034;-72
2023/04/27 01:59:13;;;;;;;13.80;6.38;;;;;;;0.82;100.00;102028.00;10379072;28;20033;-73
2023/04/27 02:04:13;;;;;;;14.23;6.88;;;;;;;0.85;100.00;102049.38;10413115;28;20041;-73
2023/04/27 02:09:14;;;;;;;15.90;6.45;;;;;;;0.79;100.00;102053.56;10395056;28;20038;-73
2023/04/27 02:14:14;;;;;;;15.30;7.53;;;;;;;0.71;100.00;102052.69;10362802;28;20567;-73
2023/04/27 02:19:15;;;;;;;16.73;7.85;;;;;;;0.71;100.00;102063.53;10363758;28;20033;-73
2023/04/27 02:24:15;;;;;;;14.30;6.35;;;;;;;0.66;100.00;102061.28;10379765;28;20049;-73
2023/04/27 02:29:16;;;;;;;11.70;6.57;;;;;;;0.56;100.00;102064.13;10395565;28;20041;-73
2023/04/27 02:34:16;;;;;;;14.57;6.72;;;;;;;0.50;100.00;102056.63;10395708;28;21179;-73
2023/04/27 02:39:17;;;;;;;10.85;6.40;;;;;;;0.48;100.00;102064.06;10336750;28;20053;-73
2023/04/27 02:44:17;;;;;;;11.30;6.68;;;;;;;0.40;100.00;102064.00;10394749;28;20041;-73
2023/04/27 02:49:18;;;;;;;13.75;7.05;;;;;;;0.38;100.00;102057.88;10379313;28;20108;-73
2023/04/27 02:54:18;;;;;;;12.32;7.07;;;;;;;-0.12;100.00;101980.00;10394441;28;20029;-73
2023/04/27 02:59:19;;;;;;;19.88;7.25;;;;;;;0.29;100.00;102050.69;10394412;28;20398;-73
2023/04/27 03:04:19;;;;;;;10.13;6.25;;;;;;;0.24;100.00;102044.91;10417123;28;20386;-72
2023/04/27 03:09:20;;;;;;;12.75;6.80;;;;;;;0.19;100.00;102042.69;10400571;28;20484;-73
2023/04/27 03:14:22;;;;;;;14.77;6.40;;;;;;;0.14;100.00;102045.84;10401107;28;20048;-71
2023/04/27 03:19:22;;;;;;;13.43;6.55;;;;;;;0.02;100.00;102030.84;10418707;28;20125;-73
2023/04/27 03:24:24;;;;;;;12.30;6.28;;;;;;;-0.04;100.00;102026.09;10418110;28;20065;-73
2023/04/27 03:29:25;;;;;;;14.30;6.65;;;;;;;-0.07;100.00;102026.38;10417576;28;20042;-73
2023/04/27 03:34:25;;;;;;;11.07;6.70;;;;;;;-0.07;100.00;102020.97;10418419;28;20038;-73
2023/04/27 03:39:26;;;;;;;15.60;7.22;;;;;;;-0.05;100.00;102029.78;10415694;28;20048;-75
2023/04/27 03:44:26;;;;;;;15.45;6.78;;;;;;;-0.13;100.00;102032.41;10399779;28;20116;-73
2023/04/27 03:49:27;;;;;;;14.30;8.05;;;;;;;-0.22;100.00;102026.94;10401356;28;20042;-73
2023/04/27 03:54:29;;;;;;;15.55;7.97;;;;;;;-0.25;100.00;102040.78;10400900;28;20042;-73
2023/04/27 03:59:30;;;;;;;14.63;8.10;;;;;;;-0.29;100.00;102036.69;10384473;28;20049;-75
2023/04/27 04:04:30;;;;;;;14.65;8.00;;;;;;;-0.26;100.00;102044.47;10418249;28;20466;-75
2023/04/27 04:09:31;;;;;;;14.23;7.55;;;;;;;-0.18;100.00;102048.28;10397604;28;20144;-75
2023/04/27 04:14:31;;;;;;;14.80;7.30;;;;;;;-0.17;100.00;102053.53;10398881;28;20033;-75
2023/04/27 04:19:32;;;;;;;16.20;7.88;;;;;;;-0.19;100.00;102051.97;10417549;28;20030;-75
2023/04/27 04:24:33;;;;;;;16.50;8.10;;;;;;;-0.19;100.00;102054.69;10400273;28;20128;-71
2023/04/27 04:29:33;;;;;;;16.75;7.97;;;;;;;-0.23;100.00;102038.78;10398975;28;20048;-75
2023/04/27 04:34:37;;;;;;;17.20;7.70;;;;;;;-0.11;100.00;102057.47;10398611;28;20097;-75
2023/04/27 04:39:37;;;;;;;14.13;7.35;;;;;;;-0.09;100.00;102052.75;10397569;28;20426;-75
2023/04/27 04:44:38;;;;;;;16.17;8.60;;;;;;;-0.11;100.00;102050.19;10398731;28;20044;-74
2023/04/27 04:49:39;;;;;;;18.63;8.68;;;;;;;0.03;100.00;102069.63;10399525;28;20044;-75
2023/04/27 04:54:39;;;;;;;17.77;8.43;;;;;;;0.02;100.00;102063.34;10398940;28;20034;-75
2023/04/27 04:59:41;;;;;;;20.42;9.32;;;;;;;0.10;100.00;102071.53;10365477;28;20515;-75
2023/04/27 05:04:41;;;;;;;18.20;8.85;;;;;;;0.22;100.00;102076.72;10414448;28;20068;-75
2023/04/27 05:09:42;;;;;;;16.13;9.13;;;;;;;0.29;100.00;102072.34;10396028;28;20060;-74
2023/04/27 05:14:43;;;;;;;24.13;9.73;;;;;;;0.37;100.00;102069.72;10414414;28;20046;-74
2023/04/27 05:19:43;;;;;;;19.88;9.80;;;;;;;0.52;100.00;102081.69;10415436;28;20033;-75
2023/04/27 05:24:44;;;;;;;22.30;10.52;;;;;;;0.74;100.00;102087.59;10398024;28;20068;-72
2023/04/27 05:29:44;;;;;;;20.35;9.75;;;;;;;0.81;100.00;102075.13;10397651;28;20045;-75
2023/04/27 05:34:45;;;;;;;23.88;11.02;;;;;;;0.90;100.00;102049.72;10395333;28;20053;-75
2023/04/27 05:39:45;;;;;;;17.70;9.52;;;;;;;1.33;100.00;102080.44;10411859;28;20071;-75
2023/04/27 05:44:46;;;;;;;16.55;9.18;;;;;;;1.51;100.00;102068.63;10397598;28;20030;-76
2023/04/27 05:49:52;;;;;;;19.65;8.23;;;;;;;1.96;100.00;102106.25;10396715;28;20053;-75
2023/04/27 05:54:53;;;;;;;19.05;9.27;;;;;;;2.19;100.00;102092.84;10380699;28;20513;-75
2023/04/27 05:59:53;;;;;;;17.48;9.00;;;;;;;2.47;100.00;102089.78;10413740;28;20045;-76
2023/04/27 06:04:54;;;;;;;15.90;8.20;;;;;;;2.45;100.00;102042.91;10413106;28;20041;-75
2023/04/27 06:09:54;;;;;;;12.05;6.55;;;;;;;3.12;100.00;102094.25;10394142;28;20042;-75
2023/04/27 06:14:55;;;;;;;10.82;6.47;;;;;;;3.33;100.00;102079.19;10364200;28;20029;-75
2023/04/27 06:19:55;;;;;;;12.52;5.53;;;;;;;3.82;100.00;102090.69;10412011;28;20498;-75
2023/04/27 06:24:56;;;;;;;13.07;7.00;;;;;;;4.06;100.00;102088.81;10413628;28;20056;-75
2023/04/27 06:29:57;;;;;;;11.93;6.68;;;;;;;4.37;100.00;102082.44;10412399;28;20038;-75
2023/04/27 06:34:57;;;;;;;7.25;5.03;;;;;;;4.60;100.00;102077.78;10378628;28;20038;-75
2023/04/27 06:39:58;;;;;;;8.35;5.03;;;;;;;4.75;100.00;102053.25;10375577;28;20030;-75
2023/04/27 06:44:58;;;;;;;8.18;5.43;;;;;;;5.09;100.00;102065.50;10387420;28;20042;-75
2023/04/27 06:49:59;;;;;;;7.90;4.75;;;;;;;5.38;100.00;102053.72;10404220;28;20468;-75
2023/04/27 06:54:59;;;;;;;7.32;4.45;;;;;;;5.63;100.00;102051.50;10403553;28;20036;-75
2023/04/27 07:00:00;;;;;;;7.53;4.80;;;;;;;5.90;100.00;102059.16;10402670;28;20029;-74
2023/04/27 07:05:01;;;;;;;8.88;4.40;;;;;;;6.04;100.00;102058.28;10402415;28;20057;-75
2023/04/27 07:10:01;;;;;;;12.98;4.55;;;;;;;6.29;100.00;102066.06;10385512;28;20037;-72
2023/04/27 07:15:03;;;;;;;6.38;4.03;;;;;;;6.41;100.00;102061.75;10410337;28;20049;-74
2023/04/27 07:20:05;;;;;;;11.70;5.10;;;;;;;6.55;100.00;102035.34;10416798;28;20038;-75
2023/04/27 07:25:05;;;;;;;5.68;3.80;;;;;;;6.86;100.00;102052.22;10385238;28;20204;-75
2023/04/27 07:30:08;;;;;;;11.70;2.95;;;;;;;6.99;100.00;102039.66;10383613;28;20452;-72
2023/04/27 07:35:08;;;;;;;6.13;2.80;;;;;;;7.21;100.00;102034.91;10418316;28;20095;-72
2023/04/27 07:40:15;;;;;;;6.50;2.50;;;;;;;7.43;100.00;102036.47;10366673;28;20053;-74
2023/04/27 07:45:16;;;;;;;5.25;2.20;;;;;;;7.57;100.00;102036.53;10418636;28;20041;-72
2023/04/27 07:50:23;;;;;;;4.38;2.80;;;;;;;7.68;100.00;102027.69;10400260;28;20140;-71
2023/04/27 07:55:24;;;;;;;9.73;3.33;;;;;;;8.01;100.00;102026.91;10416087;28;20445;-72
2023/04/27 08:00:25;;;;;;;3.25;2.53;;;;;;;8.00;100.00;102017.84;10417210;28;20045;-72
2023/04/27 08:05:25;;;;;;;4.03;3.00;;;;;;;8.02;100.00;102017.63;10397966;28;20042;-71
2023/04/27 08:10:26;;;;;;;6.00;2.70;;;;;;;8.20;100.00;102020.59;10367800;28;20033;-72
2023/04/27 08:15:26;;;;;;;12.52;4.25;;;;;;;8.41;100.00;102018.72;10384558;28;20504;-72
2023/04/27 08:20:27;;;;;;;3.88;2.60;;;;;;;8.80;100.00;102030.72;10367550;28;20033;-72
2023/04/27 08:25:27;;;;;;;7.82;3.03;;;;;;;9.01;100.00;102026.88;10416836;28;20048;-71
2023/04/27 08:30:28;;;;;;;6.82;3.45;;;;;;;9.16;100.00;102030.22;10397489;28;20038;-72
2023/04/27 08:35:29;;;;;;;6.80;3.25;;;;;;;9.18;100.00;102017.09;10381283;28;20034;-73
2023/04/27 08:40:29;;;;;;;8.35;3.53;;;;;;;9.29;100.00;102016.41;10383040;28;20444;-72
2023/04/27 08:45:30;;;;;;;6.47;3.50;;;;;;;9.56;100.00;102029.19;10399567;28;20029;-73
2023/04/27 08:50:31;;;;;;;6.20;2.72;;;;;;;9.62;100.00;102017.31;10381742;28;20036;-73
2023/04/27 08:55:31;;;;;;;10.90;4.50;;;;;;;9.63;100.00;102013.50;10360885;28;20025;-73
2023/04/27 09:00:38;;;;;;;6.38;2.95;;;;;;;9.94;100.00;102029.16;10380024;28;20391;-73
2023/04/27 09:05:45;;;;;;;6.55;3.03;;;;;;;10.11;100.00;102004.72;10381438;28;20428;-74
2023/04/27 09:10:46;;;;;;;4.18;1.95;;;;;;;10.26;100.00;101991.47;10380953;28;20048;-73
2023/04/27 09:15:48;;;;;;;6.07;2.47;;;;;;;10.12;96.30;101987.13;10396804;28;20037;-73
2023/04/27 09:20:49;;;;;;;4.88;2.65;;;;;;;10.30;95.32;101992.72;10396716;28;20120;-73
2023/04/27 09:25:50;;;;;;;7.32;2.33;;;;;;;10.74;92.97;101975.38;10413693;28;20061;-73
2023/04/27 09:30:55;;;;;;;16.27;2.90;;;;;;;11.22;91.48;101966.31;10396078;28;20045;-73
2023/04/27 09:35:57;;;;;;;4.10;2.47;;;;;;;11.66;88.83;101964.25;10338595;28;20124;-74
2023/04/27 09:40:58;;;;;;;6.75;3.13;;;;;;;12.20;87.86;101973.38;10372507;28;20052;-73
2023/04/27 09:46:00;;;;;;;4.57;2.88;;;;;;;12.35;84.87;101961.03;10340650;28;20048;-73
2023/04/27 09:51:00;;;;;;;14.30;2.85;;;;;;;12.60;82.36;101964.38;10323872;28;20041;-72
2023/04/27 09:56:40;;;;;;;7.18;3.05;;;;;;;12.78;79.87;101979.97;10355668;28;20061;-74
2023/04/27 10:01:57;;;;;;;9.65;3.22;;;;;;;12.92;78.83;101964.81;10373351;28;20068;-72
2023/04/27 10:07:01;;;;;;;9.40;2.92;;;;;;;13.10;77.58;101972.13;10379251;28;20072;-72
2023/04/27 10:12:26;;;;;;;7.57;3.40;;;;;;;12.68;78.61;101977.81;10341721;28;20041;-73
2023/04/27 10:17:31;;;;;;;5.90;2.97;;;;;;;12.82;78.68;101967.34;10344771;28;20034;-73
2023/04/27 10:22:42;;;;;;;4.85;2.45;;;;;;;12.52;78.96;101986.81;10371277;28;20038;-73
2023/04/27 10:27:43;;;;;;;7.03;3.00;;;;;;;12.08;75.60;101961.47;10340470;28;20042;-73
2023/04/27 10:32:51;;;;;;;15.73;3.75;;;;;;;11.86;76.62;101962.00;10339158;28;20137;-74
2023/04/27 10:37:51;;;;;;;4.93;2.88;;;;;;;11.97;76.96;101967.81;10349691;28;20124;-74
2023/04/27 10:42:52;;;;;;;6.07;3.03;;;;;;;11.65;77.12;101971.66;10376138;28;20413;-73
2023/04/27 10:47:56;;;;;;;7.55;4.10;;;;;;;11.67;76.33;101955.72;10378219;28;20386;-73
2023/04/27 10:53:05;;;;;;;4.63;3.00;;;;;;;11.74;73.99;101955.63;10395125;28;20045;-73
2023/04/27 10:58:05;;;;;;;5.97;3.67;;;;;;;11.75;77.42;101957.28;10363264;28;20041;-73
2023/04/27 11:03:10;;;;;;;6.32;3.50;;;;;;;11.69;74.31;101948.03;10412194;28;20037;-73
2023/04/27 11:08:12;;;;;;;6.47;3.58;;;;;;;11.57;74.15;101935.28;10394051;28;20045;-73
2023/04/27 11:13:14;;;;;;;4.82;2.70;;;;;;;11.86;75.52;101936.31;10378257;28;20065;-73
2023/04/27 11:18:16;;;;;;;9.45;3.38;;;;;;;11.54;74.84;101947.66;10378382;28;20034;-72
2023/04/27 11:23:23;;;;;;;7.32;3.30;;;;;;;11.70;75.03;101955.25;10381915;28;20480;-75
2023/04/27 11:28:23;;;;;;;5.88;3.22;;;;;;;11.51;74.92;101965.50;10420187;28;20041;-73
2023/04/27 11:33:24;;;;;;;5.47;3.13;;;;;;;11.52;75.11;101947.88;10401407;28;20064;-73
2023/04/27 11:38:26;;;;;;;6.75;3.45;;;;;;;11.91;74.68;101953.06;10360018;28;20034;-72
2023/04/27 11:43:26;;;;;;;5.60;3.53;;;;;;;12.32;73.59;101937.50;10384379;28;20465;-72
2023/04/27 11:48:28;;;;;;;6.18;2.83;;;;;;;12.80;73.23;101954.88;10401304;28;20033;-72
2023/04/27 11:53:30;;;;;;;5.45;3.08;;;;;;;13.12;74.52;101958.88;10368989;28;20061;-72
2023/04/27 11:58:49;;;;;;;6.93;3.80;;;;;;;13.43;69.91;101920.78;10374263;28;20049;-74
2023/04/27 12:03:50;;;;;;;5.45;3.25;;;;;;;13.26;68.29;101944.75;10340555;28;20095;-72
2023/04/27 12:08:51;;;;;;;5.13;2.95;;;;;;;14.12;68.97;101939.16;10366469;28;20107;-72
2023/04/27 12:13:52;;;;;;;6.93;3.20;;;;;;;13.79;67.78;101949.13;10382713;28;20044;-72
2023/04/27 12:18:52;;;;;;;21.35;3.70;;;;;;;13.76;69.86;101952.38;10383442;28;20052;-74
2023/04/27 12:23:53;;;;;;;5.70;3.47;;;;;;;13.91;69.92;101954.56;10371176;28;20331;-74
2023/04/27 12:28:53;;;;;;;6.72;3.42;;;;;;;13.84;69.14;101943.66;10358740;28;20065;-72
2023/04/27 12:33:54;;;;;;;5.70;3.00;;;;;;;14.11;69.03;101943.84;10374262;28;20046;-75
2023/04/27 12:38:58;;;;;;;4.95;2.78;;;;;;;14.14;67.30;101942.50;10357831;28;20034;-73
2023/04/27 12:43:59;;;;;;;7.30;3.33;;;;;;;14.88;68.22;101946.91;10341260;28;20120;-75
2023/04/27 12:49:00;;;;;;;4.60;3.15;;;;;;;15.95;65.58;101933.41;10342045;28;20037;-72
2023/04/27 12:54:05;;;;;;;7.38;3.13;;;;;;;16.26;63.95;101920.59;10356941;28;20049;-73
2023/04/27 12:59:05;;;;;;;10.00;3.55;;;;;;;15.36;63.02;101930.56;10376194;28;20030;-73
2023/04/27 13:04:06;;;;;;;5.13;2.80;;;;;;;14.52;64.34;101932.56;10398129;28;20049;-73
2023/04/27 13:09:06;;;;;;;7.35;3.95;;;;;;;14.26;66.33;101943.25;10395334;28;20034;-73
2023/04/27 13:14:08;;;;;;;8.15;3.60;;;;;;;13.95;66.21;101928.06;10395460;28;20040;-73
2023/04/27 13:19:09;;;;;;;10.20;3.70;;;;;;;13.78;66.62;101911.44;10414312;28;20060;-73
2023/04/27 13:24:10;;;;;;;7.85;4.13;;;;;;;13.79;64.44;101901.19;10413414;28;20040;-72
2023/04/27 13:29:11;;;;;;;8.98;3.83;;;;;;;15.60;63.77;101912.50;10396402;28;20079;-72
2023/04/27 13:34:11;;;;;;;7.43;3.45;;;;;;;16.04;60.77;101897.63;10413450;28;20033;-72
2023/04/27 13:39:12;;;;;;;6.80;3.95;;;;;;;16.61;63.40;101901.63;10394444;28;20033;-72
2023/04/27 13:44:12;;;;;;;8.52;4.10;;;;;;;17.35;61.50;101895.81;10413983;28;20037;-71
2023/04/27 13:49:13;;;;;;;5.68;3.78;;;;;;;16.26;61.12;101898.34;10415134;28;20413;-72
2023/04/27 13:54:13;;;;;;;7.60;3.95;;;;;;;14.72;62.07;101891.28;10380588;28;20045;-72
2023/04/27 13:59:15;;;;;;;9.95;4.57;;;;;;;13.91;63.58;101905.59;10395974;28;20095;-72
2023/04/27 14:04:15;;;;;;;8.45;3.78;;;;;;;14.54;67.03;101911.78;10377916;28;20041;-71
2023/04/27 14:09:16;;;;;;;7.97;4.03;;;;;;;14.75;65.26;101903.78;10377858;28;20040;-72
2023/04/27 14:14:16;;;;;;;9.40;4.28;;;;;;;14.29;67.80;101897.59;10410567;28;20129;-71
2023/04/27 14:19:19;;;;;;;6.30;3.53;;;;;;;13.97;71.54;101927.81;10377297;28;20382;-72
2023/04/27 14:24:19;;;;;;;8.13;3.58;;;;;;;13.76;70.61;101910.03;10412236;28;20034;-72
2023/04/27 14:29:20;;;;;;;10.88;4.18;;;;;;;13.65;73.95;101920.09;10395787;28;20056;-71
2023/04/27 14:34:20;;;;;;;6.57;3.97;;;;;;;13.85;73.41;101917.66;10362020;28;20664;-72
2023/04/27 14:39:21;;;;;;;7.65;3.88;;;;;;;14.76;73.62;101908.25;10411344;28;20037;-71
2023/04/27 14:44:21;;;;;;;6.53;4.50;;;;;;;13.77;70.95;101704.97;10394315;28;20076;-71
2023/04/27 14:49:22;;;;;;;9.43;4.15;;;;;;;14.64;69.33;101891.75;10414000;28;20049;-72
2023/04/27 14:54:22;;;;;;;8.57;4.30;;;;;;;14.83;71.40;101913.59;10395932;28;20056;-72
2023/04/27 14:59:23;;;;;;;8.77;4.10;;;;;;;15.31;72.41;101909.16;10417517;28;20075;-72
2023/04/27 15:04:23;;;;;;;6.47;4.15;;;;;;;15.02;71.03;101862.25;10386523;28;20042;-72
2023/04/27 15:09:24;;;;;;;8.65;4.20;;;;;;;14.81;71.36;101915.78;10420289;28;20053;-73
2023/04/27 15:14:25;;;;;;;6.40;4.03;;;;;;;14.60;71.42;101912.75;10387294;28;20065;-72
2023/04/27 15:19:25;;;;;;;6.95;4.53;;;;;;;13.90;74.25;101909.44;10404091;28;20493;-72
2023/04/27 15:24:26;;;;;;;5.57;4.10;;;;;;;13.77;77.37;101915.31;10402976;28;20040;-73
2023/04/27 15:29:26;;;;;;;7.38;4.30;;;;;;;13.61;76.65;101913.38;10419887;28;20099;-72
2023/04/27 15:34:27;;;;;;;6.90;4.03;;;;;;;13.62;76.81;101929.72;10401691;28;20033;-72
2023/04/27 15:39:27;;;;;;;12.07;4.85;;;;;;;13.80;76.90;101919.50;10398620;28;20053;-71
2023/04/27 15:44:27;;;;;;;7.25;4.45;;;;;;;13.46;75.92;101908.41;10401377;28;20052;-72
2023/04/27 15:49:29;;;;;;;10.13;4.38;;;;;;;13.22;76.92;101896.56;10384500;28;20038;-72
2023/04/27 15:54:29;;;;;;;7.32;3.88;;;;;;;13.12;80.90;101909.13;10411152;28;20053;-72
2023/04/27 15:59:30;;;;;;;7.35;4.53;;;;;;;12.81;86.15;101918.69;10388830;28;20044;-72
2023/04/27 16:04:31;;;;;;;8.30;4.70;;;;;;;12.25;90.00;101926.56;10399511;28;20053;-72
2023/04/27 16:09:31;;;;;;;7.97;4.50;;;;;;;11.89;93.66;101928.44;10382579;28;20040;-72
2023/04/27 16:14:32;;;;;;;7.38;3.67;;;;;;;11.69;93.67;101914.09;10418537;28;20037;-72
2023/04/27 16:19:32;;;;;;;11.30;5.30;;;;;;;11.24;95.61;101898.00;10399417;28;20045;-72
2023/04/27 16:24:33;;;;;;;7.75;4.07;;;;;;;11.38;100.00;101905.00;10370504;28;20029;-72
2023/04/27 16:29:34;;;;;;;9.10;4.30;;;;;;;11.23;99.77;101880.63;10415790;28;20052;-69
2023/04/27 16:34:36;;;;;;;8.18;3.70;;;;;;;11.18;99.16;101882.41;10398629;28;20294;-72
2023/04/27 16:39:36;;;;;;;6.78;4.05;;;;;;;11.00;100.00;101892.41;10416014;28;20033;-74
2023/04/27 16:44:37;;;;;;;11.20;3.78;;;;;;;10.64;100.00;101866.56;10417351;28;20041;-71
2023/04/27 16:49:37;;;;;;;4.80;3.67;;;;;;;10.58;100.00;101872.16;10416130;28;20473;-71
2023/04/27 16:54:38;;;;;;;7.35;3.67;;;;;;;10.49;100.00;101888.16;10365646;28;20033;-71
2023/04/27 16:59:38;;;;;;;6.28;3.97;;;;;;;10.40;100.00;101876.59;10415561;28;20045;-71
2023/04/27 17:04:39;;;;;;;8.15;3.53;;;;;;;10.45;100.00;101890.50;10381011;28;20057;-71
2023/04/27 17:09:40;;;;;;;5.82;4.13;;;;;;;10.17;100.00;101849.72;10379769;28;20041;-71
2023/04/27 17:14:41;;;;;;;5.80;3.95;;;;;;;10.26;100.00;101870.38;10415553;28;20029;-71
2023/04/27 17:19:41;;;;;;;7.82;3.97;;;;;;;10.16;100.00;101869.22;10379801;28;20090;-71
2023/04/27 17:24:42;;;;;;;5.80;3.80;;;;;;;10.23;100.00;101881.84;10396664;28;20037;-74
2023/04/27 17:29:42;;;;;;;6.38;3.40;;;;;;;10.23;100.00;101881.84;10414868;28;20049;-73
2023/04/27 17:34:43;;;;;;;8.52;3.92;;;;;;;10.08;100.00;101878.59;10414599;28;20034;-73
2023/04/27 17:39:43;;;;;;;8.02;3.97;;;;;;;10.13;100.00;101887.03;10413217;28;20043;-70
2023/04/27 17:44:44;;;;;;;8.32;3.88;;;;;;;9.90;100.00;101861.00;10396291;28;20053;-73
2023/04/27 17:49:45;;;;;;;8.55;4.97;;;;;;;9.80;100.00;101868.91;10412151;28;20068;-73
2023/04/27 17:54:46;;;;;;;11.52;4.60;;;;;;;9.66;100.00;101870.91;10395657;28;20036;-70
2023/04/27 17:59:47;;;;;;;7.47;4.03;;;;;;;9.47;100.00;101875.50;10394731;28;20037;-71
2023/04/27 18:04:47;;;;;;;7.90;4.15;;;;;;;9.44;100.00;101873.19;10378375;28;20317;-73
2023/04/27 18:09:48;;;;;;;7.03;3.75;;;;;;;9.12;100.00;101827.56;10412069;28;20033;-70
2023/04/27 18:14:51;;;;;;;9.98;4.90;;;;;;;9.23;100.00;101857.06;10412354;28;20457;-73
2023/04/27 18:19:55;;;;;;;8.82;4.40;;;;;;;9.12;100.00;101852.31;10394358;28;20048;-71
2023/04/27 18:24:55;;;;;;;6.13;3.70;;;;;;;9.06;100.00;101843.84;10362488;28;20029;-73
2023/04/27 18:29:56;;;;;;;7.45;4.55;;;;;;;8.96;100.00;101849.00;10394189;28;20041;-71
2023/04/27 18:34:56;;;;;;;12.77;4.55;;;;;;;8.92;100.00;101868.88;10372968;28;20037;-73
2023/04/27 18:39:57;;;;;;;12.88;5.57;;;;;;;8.74;100.00;101862.19;10403291;28;20084;-73
2023/04/27 18:44:58;;;;;;;9.88;4.88;;;;;;;8.63;100.00;101860.97;10421252;28;20496;-73
2023/04/27 18:49:59;;;;;;;12.05;4.75;;;;;;;8.46;100.00;101859.78;10402439;28;20040;-73
2023/04/27 18:54:59;;;;;;;9.65;4.82;;;;;;;8.35;100.00;101860.41;10410924;28;20446;-71
2023/04/27 19:00:00;;;;;;;7.70;5.07;;;;;;;8.30;100.00;101877.50;10408296;28;20049;-73
2023/04/27 19:05:03;;;;;;;10.07;4.88;;;;;;;8.17;100.00;101878.38;10401419;28;20083;-74
2023/04/27 19:10:04;;;;;;;11.48;5.63;;;;;;;7.65;100.00;101808.84;10370654;28;20046;-73
2023/04/27 19:15:05;;;;;;;11.18;6.25;;;;;;;7.99;100.00;101867.22;10386159;28;20026;-73
2023/04/27 19:20:07;;;;;;;11.15;6.50;;;;;;;7.85;100.00;101871.88;10401879;28;20049;-74
2023/04/27 19:25:08;;;;;;;9.88;6.18;;;;;;;7.73;100.00;101866.22;10401438;28;20049;-73
2023/04/27 19:30:09;;;;;;;15.48;6.35;;;;;;;7.67;100.00;101867.88;10400095;28;20044;-73
2023/04/27 19:35:11;;;;;;;10.70;7.05;;;;;;;7.59;100.00;101870.84;10367975;28;20053;-73
2023/04/27 19:40:12;;;;;;;10.60;7.15;;;;;;;7.53;100.00;101865.34;10401972;28;20033;-73
2023/04/27 19:45:12;;;;;;;11.20;6.90;;;;;;;7.54;100.00;101880.72;10384158;28;20029;-73
2023/04/27 19:50:13;;;;;;;12.70;6.43;;;;;;;7.48;100.00;101880.53;10383706;28;20033;-73
2023/04/27 19:55:13;;;;;;;10.40;7.13;;;;;;;7.50;100.00;101885.78;10383506;28;20045;-73
2023/04/27 20:00:14;;;;;;;12.02;6.80;;;;;;;7.30;100.00;101849.28;10383116;28;20033;-73
2023/04/27 20:05:14;;;;;;;12.82;6.70;;;;;;;7.34;100.00;101870.59;10417432;28;20476;-73
2023/04/27 20:10:15;;;;;;;12.55;7.47;;;;;;;7.30;100.00;101865.72;10418828;28;20561;-73
2023/04/27 20:15:16;;;;;;;12.63;7.07;;;;;;;7.12;100.00;101841.69;10389871;28;20112;-74
2023/04/27 20:20:18;;;;;;;13.40;8.40;;;;;;;7.14;100.00;101856.03;10417516;28;20034;-74
2023/04/27 20:25:19;;;;;;;11.93;6.97;;;;;;;7.13;100.00;101868.00;10399536;28;20064;-73
2023/04/27 20:30:19;;;;;;;11.90;7.25;;;;;;;7.03;100.00;101849.25;10366131;28;20045;-73
2023/04/27 20:35:20;;;;;;;11.65;6.80;;;;;;;6.83;100.00;101836.34;10365517;28;20417;-73
2023/04/27 20:40:20;;;;;;;12.52;7.97;;;;;;;6.85;100.00;101841.63;10383226;28;20049;-73
2023/04/27 20:45:21;;;;;;;13.45;7.50;;;;;;;6.83;100.00;101849.19;10416955;28;20026;-72
2023/04/27 20:50:22;;;;;;;10.63;6.95;;;;;;;6.65;100.00;101823.22;10415507;28;20504;-73
2023/04/27 20:55:22;;;;;;;9.18;6.68;;;;;;;6.70;100.00;101836.31;10414508;28;20037;-73
2023/04/27 21:00:24;;;;;;;10.82;7.57;;;;;;;6.64;100.00;101829.75;10379981;28;20549;-72
2023/04/27 21:05:24;;;;;;;12.63;7.68;;;;;;;6.70;100.00;101835.44;10396401;28;20049;-72
2023/04/27 21:10:25;;;;;;;10.27;7.05;;;;;;;6.62;100.00;101829.13;10398070;28;20067;-69
2023/04/27 21:15:25;;;;;;;15.32;7.72;;;;;;;6.56;100.00;101816.25;10415576;28;20041;-72
2023/04/27 21:20:26;;;;;;;11.85;7.38;;;;;;;6.52;100.00;101814.97;10396480;28;20040;-72
2023/04/27 21:25:26;;;;;;;13.45;7.88;;;;;;;6.56;100.00;101820.91;10396522;28;20059;-72
2023/04/27 21:30:29;;;;;;;10.35;7.45;;;;;;;6.49;100.00;101809.94;10395628;28;20448;-72
2023/04/27 21:35:32;;;;;;;12.05;7.20;;;;;;;6.40;100.00;101790.09;10367384;28;20636;-72
2023/04/27 21:40:33;;;;;;;11.32;7.45;;;;;;;6.42;100.00;101793.47;10384616;28;20041;-72
2023/04/27 21:45:33;;;;;;;13.68;7.63;;;;;;;6.36;100.00;101793.44;10395760;28;20045;-72
2023/04/27 21:50:35;;;;;;;13.23;7.95;;;;;;;6.15;100.00;101770.63;10379503;28;20477;-72
2023/04/27 21:55:35;;;;;;;11.35;6.57;;;;;;;6.16;100.00;101779.69;10395840;28;20034;-72
2023/04/27 22:00:36;;;;;;;13.02;7.03;;;;;;;6.01;100.00;101774.34;10394964;28;20038;-72
2023/04/27 22:05:36;;;;;;;9.00;6.20;;;;;;;5.90;100.00;101772.16;10379342;28;20033;-72
2023/04/27 22:10:37;;;;;;;14.35;6.78;;;;;;;5.81;100.00;101763.28;10395607;28;20499;-72
2023/04/27 22:15:37;;;;;;;9.82;5.40;;;;;;;5.70;100.00;101766.56;10379070;28;20092;-72
2023/04/27 22:20:39;;;;;;;12.38;6.40;;;;;;;5.58;100.00;101764.41;10412575;28;20037;-72
2023/04/27 22:25:41;;;;;;;12.45;5.82;;;;;;;5.34;100.00;101738.38;10412599;28;20056;-72
2023/04/27 22:30:42;;;;;;;10.18;5.88;;;;;;;5.31;100.00;101746.94;10394732;28;20097;-72
2023/04/27 22:35:43;;;;;;;11.13;7.30;;;;;;;5.26;100.00;101741.25;10379264;28;20034;-72
2023/04/27 22:40:43;;;;;;;11.43;7.00;;;;;;;5.21;100.00;101741.00;10395480;28;20041;-72
2023/04/27 22:45:44;;;;;;;11.82;6.43;;;;;;;5.17;100.00;101739.72;10413421;28;20053;-72
2023/04/27 22:50:44;;;;;;;11.63;8.02;;;;;;;5.10;100.00;101731.44;10394509;28;20057;-72
2023/04/27 22:55:45;;;;;;;11.82;6.32;;;;;;;4.98;100.00;101733.88;10410684;28;20045;-71